Rockfall
UTM 11U Easting = 46 9626, Northing = 56 97773     Elevation = 22240 m
Note to Users: This site contains raw data and is presented "as is" and in real time. Although reasonable care is exercised in providing this information, inaccuracies or omissions may occur due to the properties of weather and data collection systems. The Avalanche Control Section, responsible for its collection, disclaims all responsibility for the accuracy of the information.
Date Max Temp (deg C) Min Temp (deg C) Rel Hum (%) HS (cm) Wind Dir (1 Hr Avg) Wind Spd (kph) (1 Hr Avg) Max Wind Speed (kph)
2018-04-25 06:00 1 0 45 238 NW 6 27
2018-04-25 07:00 1 0 43 238 NW 8 21
2018-04-25 08:00 3 1 40 238 NW 5 13
2018-04-25 09:00 3 3 36 238 NW 7 14
2018-04-25 10:00 5 3 33 239 NW 8 16
2018-04-25 11:00 5 3 33 236 NW 8 17
2018-04-25 12:00 6 4 32 236 NW 11 23
2018-04-25 13:00 6 5 29 236 NW 13 24
2018-04-25 14:00 7 5 28 235 NW 13 24
2018-04-25 15:00 7 6 28 235 NW 13 27
2018-04-25 16:00 8 6 29 235 NW 14 24
2018-04-25 17:00 7 6 31 234 NW 13 25
2018-04-25 18:00 7 6 32 234 NW 12 24
2018-04-25 19:00 6 3 36 234 NW 9 21
2018-04-25 20:00 4 3 38 234 NW 5 15
2018-04-25 21:00 3 2 38 234 NW 2 8
2018-04-25 22:00 3 3 38 234 N 1 5
2018-04-25 23:00 3 3 39 234 N 1 5
2018-04-26 00:00 3 2 40 233 N 1 1
2018-04-26 01:00 3 2 42 233 NE 1 1
2018-04-26 02:00 3 2 43 233 NE 2 9
2018-04-26 03:00 3 2 45 233 NE 5 9
2018-04-26 04:00 3 2 44 233 NE 1 1